Time;durP1;ratioP1;P1;durP2;ratioP2;P2;SDS_P1;SDS_P2;PMS_P1;PMS_P2;Temp;Humidity;BMP_temperature;BMP_pressure;BME280_temperature;BME280_humidity;BME280_pressure;Samples;Min_cycle;Max_cycle;Signal;HPM_P1;HPM_P2
2022/01/17 00:00:47;;;;;;;37.33;27.17;;;;;;;0.34;100.00;99199.72;2098291;28;20680;-72
2022/01/17 00:01:49;;;;;;;35.53;27.45;;;;;;;0.32;100.00;99181.56;2098387;28;20259;-72
2022/01/17 00:02:52;;;;;;;37.17;28.60;;;;;;;0.33;100.00;99190.25;2097751;28;20194;-72
2022/01/17 00:03:54;;;;;;;39.13;28.10;;;;;;;0.31;100.00;99189.69;2090131;28;20268;-72
2022/01/17 00:04:55;;;;;;;36.45;28.10;;;;;;;0.30;100.00;99178.38;2089938;28;20219;-72
2022/01/17 00:05:57;;;;;;;42.43;28.57;;;;;;;0.28;100.00;99173.38;2089470;28;20294;-72
2022/01/17 00:06:59;;;;;;;38.35;28.40;;;;;;;0.28;100.00;99172.56;2098385;28;20209;-72
2022/01/17 00:08:00;;;;;;;33.80;27.00;;;;;;;0.27;100.00;99181.47;2105721;28;20703;-71
2022/01/17 00:09:03;;;;;;;38.90;28.40;;;;;;;0.26;100.00;99179.84;2098207;28;20186;-72
2022/01/17 00:10:05;;;;;;;37.42;29.05;;;;;;;0.25;100.00;99180.88;2090105;28;20654;-72
2022/01/17 00:11:06;;;;;;;37.25;27.98;;;;;;;0.31;100.00;99174.72;2089710;28;20233;-72
2022/01/17 00:12:10;;;;;;;37.70;27.55;;;;;;;0.32;100.00;99184.19;2098409;28;20546;-72
2022/01/17 00:13:21;;;;;;;33.38;26.38;;;;;;;0.28;100.00;99186.47;2098799;28;20197;-71
2022/01/17 00:14:28;;;;;;;34.08;28.05;;;;;;;0.30;100.00;99181.00;2098194;28;20201;-72
2022/01/17 00:15:42;;;;;;;33.13;25.98;;;;;;;0.30;100.00;99178.38;2090631;28;20230;-71
2022/01/17 00:16:50;;;;;;;34.33;26.52;;;;;;;0.30;100.00;99186.25;2098617;28;20219;-71
2022/01/17 00:17:57;;;;;;;32.10;26.08;;;;;;;0.33;100.00;99175.28;2098817;28;20641;-71
2022/01/17 00:19:28;;;;;;;35.38;26.30;;;;;;;0.33;100.00;99188.41;2098969;28;20228;-72
2022/01/17 00:20:31;;;;;;;33.40;25.95;;;;;;;0.34;100.00;99182.13;2098701;28;20634;-71
2022/01/17 00:21:32;;;;;;;35.15;26.60;;;;;;;0.41;100.00;99192.53;2097421;28;20305;-72
2022/01/17 00:22:34;;;;;;;32.93;25.87;;;;;;;0.40;100.00;99175.19;2098287;28;20190;-71
2022/01/17 00:23:36;;;;;;;29.50;25.52;;;;;;;0.37;100.00;99171.22;2098820;28;20186;-71
2022/01/17 00:24:39;;;;;;;30.30;25.35;;;;;;;0.37;100.00;99171.22;2097156;28;20214;-71
2022/01/17 00:25:40;;;;;;;31.73;25.90;;;;;;;0.42;100.00;99173.13;2089888;28;20602;-71
2022/01/17 00:26:44;;;;;;;31.60;25.03;;;;;;;0.44;100.00;99161.41;2098302;28;20190;-71
2022/01/17 00:27:49;;;;;;;30.92;25.67;;;;;;;0.42;100.00;99176.56;2098113;28;20201;-72
2022/01/17 00:28:51;;;;;;;31.20;24.83;;;;;;;0.40;100.00;99167.31;2090296;28;20198;-71
2022/01/17 00:29:52;;;;;;;30.13;24.65;;;;;;;0.46;100.00;99172.47;2098185;28;20195;-72
2022/01/17 00:30:54;;;;;;;32.47;25.17;;;;;;;0.48;100.00;99167.00;2098827;28;20193;-72
2022/01/17 00:31:55;;;;;;;33.17;25.67;;;;;;;0.45;100.00;99170.88;2097975;28;20202;-71
2022/01/17 00:32:57;;;;;;;32.45;24.75;;;;;;;0.46;100.00;99153.31;2089841;28;20201;-72
2022/01/17 00:33:58;;;;;;;29.35;24.15;;;;;;;0.47;100.00;99165.41;2089810;28;20194;-71
2022/01/17 00:35:00;;;;;;;41.47;30.33;;;;;;;0.46;100.00;99169.84;2098090;28;20201;-71
2022/01/17 00:36:02;;;;;;;34.67;29.33;;;;;;;0.46;100.00;99161.97;2105807;28;20217;-72
2022/01/17 00:37:04;;;;;;;34.15;29.42;;;;;;;0.47;100.00;99153.06;2098066;28;20624;-72
2022/01/17 00:40:28;;;;;;;35.40;29.95;;;;;;;0.48;100.00;99167.00;2098863;28;20163;-72
2022/01/17 00:41:30;;;;;;;35.42;30.48;;;;;;;0.46;100.00;99164.59;2098571;28;20274;-71
2022/01/17 00:42:31;;;;;;;36.50;31.70;;;;;;;0.47;100.00;99166.19;2098823;28;20273;-71
2022/01/17 00:43:35;;;;;;;35.42;31.38;;;;;;;0.43;100.00;99159.78;2097587;28;20202;-71
2022/01/17 00:44:40;;;;;;;35.97;32.10;;;;;;;0.43;100.00;99164.22;2098091;28;20241;-72
2022/01/17 00:45:43;;;;;;;38.47;33.72;;;;;;;0.43;100.00;99167.66;2097554;28;20577;-72
2022/01/17 00:46:45;;;;;;;35.35;31.17;;;;;;;0.43;100.00;99159.00;2089958;28;20191;-71
2022/01/17 00:47:50;;;;;;;37.30;31.98;;;;;;;0.42;100.00;99166.06;2098100;28;20194;-71
2022/01/17 00:48:52;;;;;;;36.33;31.50;;;;;;;0.38;100.00;99167.56;2098618;28;20190;-71
2022/01/17 00:49:52;;;;;;;36.85;32.40;;;;;;;0.36;100.00;99163.56;2098019;28;20206;-72
2022/01/17 00:50:56;;;;;;;37.57;32.50;;;;;;;0.36;100.00;99158.31;2097667;28;20190;-72
2022/01/17 00:51:57;;;;;;;35.78;31.05;;;;;;;0.37;100.00;99180.91;2098887;28;20174;-71
2022/01/17 00:53:02;;;;;;;34.43;30.07;;;;;;;0.36;100.00;99159.13;2098656;28;20178;-71
2022/01/17 00:54:04;;;;;;;37.95;32.03;;;;;;;0.35;100.00;99156.69;2098682;28;20175;-72
2022/01/17 00:55:06;;;;;;;39.70;31.95;;;;;;;0.33;100.00;99164.81;2097808;28;20197;-72
2022/01/17 00:56:10;;;;;;;36.00;32.08;;;;;;;0.35;100.00;99169.81;2098048;28;20210;-72
2022/01/17 00:57:16;;;;;;;37.45;32.22;;;;;;;0.42;100.00;99147.69;2105467;28;20253;-71
2022/01/17 00:58:18;;;;;;;39.30;32.15;;;;;;;0.37;100.00;99150.22;2105985;28;20179;-71
2022/01/17 00:59:21;;;;;;;38.72;32.95;;;;;;;0.34;100.00;99158.53;2098383;28;20238;-72
2022/01/17 01:00:22;;;;;;;40.85;33.50;;;;;;;0.33;100.00;99158.75;2097870;28;20201;-72
2022/01/17 01:01:24;;;;;;;40.00;33.30;;;;;;;0.34;100.00;99157.72;2097469;28;20233;-72
2022/01/17 01:02:25;;;;;;;36.47;32.10;;;;;;;0.36;100.00;99158.31;2098147;28;20202;-72
2022/01/17 01:03:28;;;;;;;37.70;32.23;;;;;;;0.30;100.00;99159.22;2097957;28;20190;-72
2022/01/17 01:04:29;;;;;;;39.22;32.85;;;;;;;0.25;100.00;99141.53;2098061;28;20182;-72
2022/01/17 01:05:35;;;;;;;41.05;33.00;;;;;;;0.22;100.00;99145.41;2105441;28;20198;-73
2022/01/17 01:06:36;;;;;;;41.45;33.30;;;;;;;0.18;100.00;99162.63;2097519;28;20711;-72
2022/01/17 01:07:38;;;;;;;38.80;32.13;;;;;;;0.21;100.00;99159.53;2098035;28;20628;-72
2022/01/17 01:08:38;;;;;;;38.97;34.08;;;;;;;0.21;100.00;99161.38;2098575;28;20193;-72
2022/01/17 01:09:50;;;;;;;36.63;32.57;;;;;;;0.22;100.00;99136.72;2098139;28;20300;-71
2022/01/17 01:10:53;;;;;;;40.50;33.80;;;;;;;0.20;100.00;99149.28;2098166;28;20170;-72
2022/01/17 01:11:54;;;;;;;43.50;33.83;;;;;;;0.21;100.00;99141.19;2098564;28;20277;-72
2022/01/17 01:12:56;;;;;;;39.17;33.22;;;;;;;0.18;100.00;99135.59;2098629;28;20183;-72
2022/01/17 01:13:57;;;;;;;40.25;33.95;;;;;;;0.18;100.00;99143.47;2097837;28;20202;-72
2022/01/17 01:15:01;;;;;;;40.37;32.30;;;;;;;0.23;100.00;99131.25;2098103;28;20277;-71
2022/01/17 01:16:24;;;;;;;39.67;33.05;;;;;;;0.22;100.00;99131.50;2097134;28;20209;-72
2022/01/17 01:17:35;;;;;;;43.95;33.13;;;;;;;0.20;100.00;99129.09;2098450;28;20181;-72
2022/01/17 01:18:49;;;;;;;42.75;33.47;;;;;;;0.19;100.00;99138.00;2097807;28;20341;-72
2022/01/17 01:20:00;;;;;;;39.38;33.13;;;;;;;0.20;100.00;99136.16;2091456;28;20713;-72
2022/01/17 01:21:35;;;;;;;41.67;32.95;;;;;;;0.18;100.00;99130.34;2097509;28;20182;-72
2022/01/17 01:27:56;;;;;;;39.78;31.52;;;;;;;0.22;100.00;99106.03;2106196;28;20189;-73
2022/01/17 01:28:56;;;;;;;38.08;31.40;;;;;;;0.19;100.00;99117.00;2097174;28;20206;-72
2022/01/17 01:30:01;;;;;;;36.40;30.20;;;;;;;0.22;100.00;99115.75;2089169;28;20203;-71
2022/01/17 01:31:10;;;;;;;38.75;32.28;;;;;;;0.26;100.00;99096.72;2089539;28;20203;-71
2022/01/17 01:32:13;;;;;;;36.38;30.70;;;;;;;0.24;100.00;99103.19;2090643;28;20202;-71
2022/01/17 01:33:24;;;;;;;38.33;29.70;;;;;;;0.27;100.00;99131.63;2098007;28;20240;-71
2022/01/17 01:34:32;;;;;;;40.50;30.55;;;;;;;0.28;100.00;99104.34;2106220;28;20193;-71
2022/01/17 01:35:43;;;;;;;37.53;30.80;;;;;;;0.26;100.00;99112.44;2105380;28;20265;-72
2022/01/17 01:36:47;;;;;;;41.33;31.58;;;;;;;0.30;100.00;99102.28;2098219;28;20218;-71
2022/01/17 01:37:49;;;;;;;37.22;30.58;;;;;;;0.29;100.00;99098.06;2097368;28;20289;-72
2022/01/17 01:38:51;;;;;;;36.63;31.95;;;;;;;0.29;100.00;99087.56;2097871;28;20210;-72
2022/01/17 01:39:54;;;;;;;37.10;30.98;;;;;;;0.27;100.00;99097.50;2098413;28;20183;-72
2022/01/17 01:40:58;;;;;;;35.28;31.38;;;;;;;0.26;100.00;99096.72;2097300;28;20271;-72
2022/01/17 01:41:59;;;;;;;37.67;31.70;;;;;;;0.29;100.00;99084.94;2097910;28;20235;-72
2022/01/17 01:43:01;;;;;;;35.95;31.55;;;;;;;0.32;100.00;99091.56;2097411;28;20251;-72
2022/01/17 01:44:03;;;;;;;37.13;30.83;;;;;;;0.36;100.00;99090.09;2097128;28;20210;-72
2022/01/17 01:45:09;;;;;;;35.28;31.30;;;;;;;0.37;100.00;99097.72;2098042;28;20206;-72
2022/01/17 01:46:14;;;;;;;37.20;31.17;;;;;;;0.41;100.00;99101.47;2098658;28;20224;-72
2022/01/17 01:47:16;;;;;;;35.05;29.88;;;;;;;0.39;100.00;99082.56;2098395;28;20218;-72
2022/01/17 01:48:19;;;;;;;35.85;30.10;;;;;;;0.46;100.00;99087.69;2098459;28;20198;-72
2022/01/17 01:49:21;;;;;;;33.90;29.50;;;;;;;0.44;100.00;99071.38;2097348;28;20711;-72
2022/01/17 01:50:23;;;;;;;33.50;29.25;;;;;;;0.46;100.00;99085.06;2097949;28;20599;-72
2022/01/17 01:51:24;;;;;;;33.47;29.17;;;;;;;0.46;100.00;99085.88;2097953;28;20218;-72
2022/01/17 01:52:27;;;;;;;34.77;29.13;;;;;;;0.48;100.00;99099.56;2098604;28;20641;-72
2022/01/17 01:53:29;;;;;;;34.40;28.70;;;;;;;0.46;100.00;99074.56;2098408;28;20664;-72
2022/01/17 01:54:31;;;;;;;33.00;29.35;;;;;;;0.50;100.00;99097.47;2097704;28;20232;-72
2022/01/17 01:55:33;;;;;;;35.10;29.52;;;;;;;0.51;100.00;99067.59;2089605;28;20203;-72
2022/01/17 01:56:35;;;;;;;35.80;29.27;;;;;;;0.52;100.00;99073.63;2097784;28;20190;-72
2022/01/17 01:57:37;;;;;;;31.88;28.38;;;;;;;0.52;100.00;99057.88;2098346;28;20192;-72
2022/01/17 01:58:42;;;;;;;34.03;29.85;;;;;;;0.53;100.00;99049.81;2105373;28;20213;-72
2022/01/17 01:59:43;;;;;;;31.55;28.13;;;;;;;0.54;100.00;99051.38;2097391;28;20205;-72
2022/01/17 02:00:46;;;;;;;32.13;28.63;;;;;;;0.60;100.00;99044.41;2089479;28;20199;-72
2022/01/17 02:01:48;;;;;;;31.65;28.27;;;;;;;0.62;100.00;99039.75;2088999;28;20314;-72
2022/01/17 02:02:50;;;;;;;31.20;27.85;;;;;;;0.62;100.00;99037.13;2097723;28;20377;-72
2022/01/17 02:03:51;;;;;;;30.85;27.55;;;;;;;0.64;100.00;99036.88;2097705;28;20695;-72
2022/01/17 02:04:52;;;;;;;32.03;28.57;;;;;;;0.63;100.00;99028.22;2097705;28;20617;-72
2022/01/17 02:05:55;;;;;;;30.73;27.52;;;;;;;0.65;100.00;99038.47;2097122;28;20202;-72
2022/01/17 02:06:56;;;;;;;33.42;28.83;;;;;;;0.68;100.00;99038.00;2090427;28;20606;-72
2022/01/17 02:07:59;;;;;;;30.55;27.35;;;;;;;0.71;100.00;99027.06;2099303;28;20206;-72
2022/01/17 02:09:00;;;;;;;30.45;27.42;;;;;;;0.73;100.00;99038.13;2099840;28;20191;-72
2022/01/17 02:10:04;;;;;;;30.95;27.75;;;;;;;0.73;100.00;99035.50;2098826;28;20194;-72
2022/01/17 02:11:07;;;;;;;30.20;27.13;;;;;;;0.80;100.00;99042.22;2091162;28;20195;-72
2022/01/17 02:12:11;;;;;;;28.52;25.60;;;;;;;0.80;100.00;99036.94;2099245;28;20297;-72
2022/01/17 02:13:13;;;;;;;29.58;26.55;;;;;;;0.78;100.00;99018.00;2100287;28;20197;-72
2022/01/17 02:14:16;;;;;;;29.47;26.43;;;;;;;0.82;100.00;99026.22;2099929;28;20183;-72
2022/01/17 02:15:19;;;;;;;27.38;24.63;;;;;;;0.84;100.00;99016.25;2100039;28;20221;-72
2022/01/17 02:16:22;;;;;;;28.33;25.33;;;;;;;0.84;100.00;99014.44;2099782;28;20648;-72
2022/01/17 02:17:25;;;;;;;28.23;25.33;;;;;;;0.86;100.00;99011.56;2099918;28;20183;-72
2022/01/17 02:18:30;;;;;;;30.90;25.80;;;;;;;0.87;100.00;99007.94;2099790;28;20221;-72
2022/01/17 02:19:34;;;;;;;27.95;24.70;;;;;;;0.88;100.00;99009.53;2099952;28;20243;-72
2022/01/17 02:20:43;;;;;;;27.60;24.75;;;;;;;0.89;100.00;99013.75;2099821;28;20183;-72
2022/01/17 02:21:47;;;;;;;28.02;25.02;;;;;;;0.89;100.00;98995.38;2098747;28;20692;-72
2022/01/17 02:22:49;;;;;;;27.80;25.00;;;;;;;0.90;100.00;99011.91;2098926;28;20191;-72
2022/01/17 02:23:51;;;;;;;28.58;24.63;;;;;;;0.90;100.00;99002.22;2091661;28;20198;-73
2022/01/17 02:24:53;;;;;;;27.60;24.67;;;;;;;0.92;100.00;98997.50;2091399;28;20187;-72
2022/01/17 02:25:55;;;;;;;27.45;24.55;;;;;;;0.94;100.00;99003.31;2090742;28;20570;-72
2022/01/17 02:26:58;;;;;;;26.88;24.05;;;;;;;0.94;100.00;99005.94;2090886;28;20195;-72
2022/01/17 02:27:59;;;;;;;29.00;24.77;;;;;;;0.93;100.00;99011.44;2090795;28;20203;-73
2022/01/17 02:29:01;;;;;;;26.70;24.00;;;;;;;0.95;100.00;98989.16;2090996;28;20194;-72
2022/01/17 02:30:03;;;;;;;26.05;23.45;;;;;;;0.98;100.00;98999.22;2090681;28;20198;-72
2022/01/17 02:31:05;;;;;;;25.90;23.35;;;;;;;1.00;100.00;98989.25;2090929;28;20625;-72
2022/01/17 02:32:06;;;;;;;25.90;23.23;;;;;;;1.00;100.00;98997.13;2090705;28;20680;-72
2022/01/17 02:33:08;;;;;;;26.05;23.48;;;;;;;0.98;100.00;98993.97;2090930;28;20225;-72
2022/01/17 02:34:10;;;;;;;25.35;22.90;;;;;;;0.98;100.00;98975.56;2090805;28;20236;-71
2022/01/17 02:35:17;;;;;;;24.77;22.38;;;;;;;0.99;100.00;98961.41;2090941;28;20190;-72
2022/01/17 02:36:19;;;;;;;25.25;22.70;;;;;;;1.01;100.00;98967.22;2095028;28;20313;-72
2022/01/17 02:37:21;;;;;;;24.95;22.38;;;;;;;1.04;100.00;98960.69;2082600;28;20191;-71
2022/01/17 02:38:21;;;;;;;25.73;23.02;;;;;;;1.07;100.00;98966.28;2090798;28;20195;-71
2022/01/17 02:39:23;;;;;;;24.53;22.13;;;;;;;1.07;100.00;98979.41;2090342;28;20191;-71
2022/01/17 02:40:26;;;;;;;24.83;22.33;;;;;;;1.09;100.00;98966.81;2090826;28;20529;-71
2022/01/17 02:41:30;;;;;;;24.48;22.17;;;;;;;1.10;100.00;98981.56;2091367;28;20264;-71
2022/01/17 02:42:33;;;;;;;24.60;22.17;;;;;;;1.13;100.00;98967.97;2091500;28;20183;-71
2022/01/17 02:43:34;;;;;;;23.48;21.23;;;;;;;1.16;100.00;98964.06;2090687;28;20203;-71
2022/01/17 02:44:44;;;;;;;24.05;21.55;;;;;;;1.21;100.00;98971.22;2090708;28;20346;-71
2022/01/17 02:47:02;;;;;;;25.13;22.55;;;;;;;1.19;100.00;98974.09;2090090;28;20194;-72
2022/01/17 02:48:05;;;;;;;23.08;20.98;;;;;;;1.22;100.00;98959.69;2091305;28;20277;-71
2022/01/17 02:49:10;;;;;;;24.02;21.73;;;;;;;1.20;100.00;98964.38;2091319;28;20650;-72
2022/01/17 02:50:12;;;;;;;23.65;21.25;;;;;;;1.19;100.00;98960.94;2090285;28;20210;-71
2022/01/17 02:51:13;;;;;;;23.85;21.55;;;;;;;1.21;100.00;98948.34;2093013;28;20237;-71
2022/01/17 02:52:20;;;;;;;24.10;21.60;;;;;;;1.25;100.00;98967.09;2107589;28;20170;-71
2022/01/17 02:53:20;;;;;;;23.25;21.05;;;;;;;1.24;100.00;98940.03;2098830;28;20205;-71
2022/01/17 02:54:24;;;;;;;23.40;21.10;;;;;;;1.25;100.00;98946.06;2090616;28;20676;-71
2022/01/17 02:55:25;;;;;;;23.95;21.55;;;;;;;1.26;100.00;98929.25;2098981;28;20187;-71
2022/01/17 02:56:27;;;;;;;23.07;20.77;;;;;;;1.27;100.00;98921.13;2099533;28;20194;-71
2022/01/17 02:57:31;;;;;;;23.52;21.08;;;;;;;1.26;100.00;98939.78;2099736;28;20205;-72
2022/01/17 02:58:34;;;;;;;24.50;22.13;;;;;;;1.26;100.00;98945.03;2099283;28;20236;-71
2022/01/17 02:59:36;;;;;;;23.25;21.05;;;;;;;1.29;100.00;98921.69;2107248;28;20662;-71
2022/01/17 03:00:37;;;;;;;22.45;20.45;;;;;;;1.31;100.00;98932.78;2098860;28;20194;-72
2022/01/17 03:01:42;;;;;;;22.73;20.63;;;;;;;1.38;100.00;98936.03;2090494;28;20680;-72
2022/01/17 03:02:48;;;;;;;23.15;21.05;;;;;;;1.37;100.00;98933.63;2090688;28;20198;-71
2022/01/17 03:03:50;;;;;;;21.83;19.92;;;;;;;1.37;100.00;98944.94;2091365;28;20692;-71
2022/01/17 03:04:51;;;;;;;20.85;19.02;;;;;;;1.37;100.00;98923.13;2090621;28;20665;-71
2022/01/17 03:05:55;;;;;;;22.03;19.93;;;;;;;1.40;100.00;98928.72;2098319;28;20637;-71
2022/01/17 03:06:57;;;;;;;23.00;20.67;;;;;;;1.42;100.00;98923.22;2099453;28;20193;-71
2022/01/17 03:08:02;;;;;;;22.00;20.00;;;;;;;1.41;100.00;98940.03;2098011;28;20206;-71
2022/01/17 03:09:04;;;;;;;21.48;19.58;;;;;;;1.44;100.00;98931.66;2098871;28;20194;-71
2022/01/17 03:10:11;;;;;;;21.25;19.35;;;;;;;1.43;100.00;98916.94;2107106;28;20197;-71
2022/01/17 03:11:16;;;;;;;21.10;19.15;;;;;;;1.50;100.00;98928.06;2106651;28;20178;-71
2022/01/17 03:12:18;;;;;;;22.08;20.08;;;;;;;1.52;100.00;98922.56;2098734;28;20198;-71
2022/01/17 03:13:20;;;;;;;20.25;18.58;;;;;;;1.50;100.00;98928.06;2090460;28;20194;-71
2022/01/17 03:14:22;;;;;;;21.85;19.85;;;;;;;1.53;100.00;98940.72;2098822;28;20186;-72
2022/01/17 03:15:25;;;;;;;21.85;19.75;;;;;;;1.53;100.00;98938.09;2099349;28;20201;-72
2022/01/17 03:16:34;;;;;;;21.95;20.08;;;;;;;1.54;100.00;98929.19;2098984;28;20218;-71
2022/01/17 03:17:35;;;;;;;21.55;19.55;;;;;;;1.55;100.00;98930.75;2091531;28;20618;-71
2022/01/17 03:18:40;;;;;;;20.83;19.10;;;;;;;1.57;100.00;98941.88;2090400;28;20214;-71
2022/01/17 03:19:40;;;;;;;21.33;19.13;;;;;;;1.56;100.00;98916.59;2098976;28;20204;-71
2022/01/17 03:20:42;;;;;;;21.17;19.37;;;;;;;1.57;100.00;98925.28;2098630;28;20217;-71
2022/01/17 03:21:44;;;;;;;21.50;19.50;;;;;;;1.58;100.00;98922.41;2098570;28;20229;-71
2022/01/17 03:22:45;;;;;;;21.35;19.45;;;;;;;1.62;100.00;98920.88;2099459;28;20187;-71
2022/01/17 03:23:50;;;;;;;20.63;19.02;;;;;;;1.63;100.00;98926.94;2098535;28;20244;-70
2022/01/17 03:24:51;;;;;;;21.95;20.15;;;;;;;1.61;100.00;98924.56;2090387;28;20211;-71
2022/01/17 03:25:53;;;;;;;21.70;19.70;;;;;;;1.63;100.00;98914.59;2098525;28;20681;-72
2022/01/17 03:26:55;;;;;;;20.92;19.08;;;;;;;1.68;100.00;98927.81;2098734;28;20731;-71
2022/01/17 03:27:56;;;;;;;20.75;18.75;;;;;;;1.69;100.00;98924.16;2098614;28;20198;-71
2022/01/17 03:28:59;;;;;;;20.80;19.00;;;;;;;1.68;100.00;98912.03;2089938;28;20245;-71
2022/01/17 03:30:00;;;;;;;20.50;18.67;;;;;;;1.70;100.00;98912.59;2098675;28;20214;-70
2022/01/17 03:31:02;;;;;;;21.70;19.63;;;;;;;1.74;100.00;98922.63;2106468;28;20202;-71
2022/01/17 03:32:03;;;;;;;21.60;19.70;;;;;;;1.72;100.00;98911.56;2106956;28;20193;-71
2022/01/17 03:33:07;;;;;;;21.27;19.35;;;;;;;1.68;100.00;98909.41;2099420;28;20640;-70
2022/01/17 03:34:09;;;;;;;20.73;18.88;;;;;;;1.69;100.00;98912.84;2098082;28;20573;-71
2022/01/17 03:35:13;;;;;;;20.80;19.08;;;;;;;1.74;100.00;98938.41;2090310;28;20199;-70
2022/01/17 03:36:16;;;;;;;21.20;19.38;;;;;;;1.75;100.00;98903.19;2098162;28;20222;-71
2022/01/17 03:37:17;;;;;;;21.38;19.58;;;;;;;1.76;100.00;98917.94;2099234;28;20175;-70
2022/01/17 03:38:21;;;;;;;20.87;19.07;;;;;;;1.73;100.00;98916.56;2099173;28;20191;-71
2022/01/17 03:39:24;;;;;;;21.25;19.42;;;;;;;1.72;100.00;98914.19;2098493;28;20444;-71
2022/01/17 03:40:24;;;;;;;21.52;19.52;;;;;;;1.70;100.00;98911.78;2090599;28;20229;-71
2022/01/17 03:41:26;;;;;;;20.83;19.03;;;;;;;1.70;100.00;98894.19;2098552;28;20243;-72
2022/01/17 03:42:27;;;;;;;24.08;21.55;;;;;;;1.70;100.00;98902.06;2099148;28;20550;-70
2022/01/17 03:43:29;;;;;;;22.00;20.10;;;;;;;1.70;100.00;98894.19;2097991;28;20230;-70
2022/01/17 03:44:31;;;;;;;21.95;19.77;;;;;;;1.65;100.00;98888.88;2098646;28;20516;-71
2022/01/17 03:45:32;;;;;;;21.95;19.90;;;;;;;1.73;100.00;98902.63;2099215;28;20247;-70
2022/01/17 03:46:34;;;;;;;20.63;18.83;;;;;;;1.69;100.00;98897.06;2098352;28;20195;-71
2022/01/17 03:47:36;;;;;;;20.83;19.08;;;;;;;1.74;100.00;98897.16;2098480;28;20545;-71
2022/01/17 03:48:37;;;;;;;20.38;18.60;;;;;;;1.75;100.00;98913.72;2098381;28;20201;-70
2022/01/17 03:49:40;;;;;;;20.90;19.00;;;;;;;1.73;100.00;98884.22;2098510;28;20202;-71
2022/01/17 03:50:42;;;;;;;21.52;19.55;;;;;;;1.74;100.00;98888.44;2099180;28;20225;-71
2022/01/17 03:51:43;;;;;;;21.13;19.13;;;;;;;1.80;100.00;98890.09;2098738;28;20260;-71
2022/01/17 03:52:45;;;;;;;21.93;19.93;;;;;;;1.79;100.00;98896.41;2099039;28;20273;-71
2022/01/17 03:53:46;;;;;;;20.85;19.05;;;;;;;1.77;100.00;98893.22;2099009;28;20201;-70
2022/01/17 03:54:48;;;;;;;21.65;19.63;;;;;;;1.76;100.00;98894.25;2098247;28;20210;-71
2022/01/17 03:55:51;;;;;;;22.05;19.75;;;;;;;1.78;100.00;98887.72;2098443;28;20183;-70
2022/01/17 03:56:52;;;;;;;20.67;19.00;;;;;;;1.75;100.00;98906.63;2099077;28;20559;-70
2022/01/17 03:57:56;;;;;;;21.23;19.42;;;;;;;1.77;100.00;98885.34;2097783;28;20217;-70
2022/01/17 03:58:57;;;;;;;21.95;19.95;;;;;;;1.79;100.00;98899.81;2089832;28;20242;-70
2022/01/17 03:59:59;;;;;;;22.83;20.67;;;;;;;1.79;100.00;98878.00;2098448;28;20347;-70
2022/01/17 04:01:02;;;;;;;21.83;19.85;;;;;;;1.80;100.00;98882.22;2099123;28;20538;-71
2022/01/17 04:02:03;;;;;;;22.17;20.20;;;;;;;1.79;100.00;98884.03;2098239;28;20293;-71
2022/01/17 04:03:05;;;;;;;22.17;20.27;;;;;;;1.77;100.00;98866.94;2098409;28;20272;-72
2022/01/17 04:04:10;;;;;;;22.23;20.33;;;;;;;1.76;100.00;98881.13;2098973;28;20201;-72
2022/01/17 04:05:12;;;;;;;22.90;20.75;;;;;;;1.77;100.00;98869.56;2098251;28;20220;-71
2022/01/17 04:06:16;;;;;;;22.75;20.60;;;;;;;1.79;100.00;98875.34;2097551;28;20260;-71
2022/01/17 04:07:16;;;;;;;23.45;21.20;;;;;;;1.73;100.00;98873.69;2090933;28;20614;-71
2022/01/17 04:08:18;;;;;;;22.80;20.87;;;;;;;1.70;100.00;98890.75;2089974;28;20594;-71
2022/01/17 04:09:19;;;;;;;22.33;20.33;;;;;;;1.68;100.00;98893.63;2090078;28;20195;-70
2022/01/17 04:10:24;;;;;;;23.20;21.03;;;;;;;1.64;100.00;98884.63;2089863;28;20230;-70
2022/01/17 04:11:27;;;;;;;22.10;20.20;;;;;;;1.59;100.00;98907.44;2090271;28;20171;-70
2022/01/17 04:12:27;;;;;;;22.83;20.67;;;;;;;1.60;100.00;98869.59;2090659;28;20191;-71
2022/01/17 04:13:31;;;;;;;23.27;21.07;;;;;;;1.56;100.00;98879.78;2090750;28;20626;-70
2022/01/17 04:14:35;;;;;;;22.98;20.73;;;;;;;1.61;100.00;98874.59;2090615;28;20187;-72
2022/01/17 04:15:37;;;;;;;24.10;21.73;;;;;;;1.55;100.00;98875.56;2090647;28;20191;-72
2022/01/17 04:16:38;;;;;;;24.65;22.05;;;;;;;1.56;100.00;98874.50;2090851;28;20195;-72
2022/01/17 04:17:43;;;;;;;23.17;21.17;;;;;;;1.54;100.00;98873.19;2090711;28;20633;-72
2022/01/17 04:18:44;;;;;;;25.10;22.70;;;;;;;1.53;100.00;98914.44;2098208;28;20206;-72
2022/01/17 04:19:48;;;;;;;24.33;22.00;;;;;;;1.50;100.00;98858.94;2089948;28;20203;-72
2022/01/17 04:20:50;;;;;;;24.48;21.98;;;;;;;1.57;100.00;98885.84;2081790;28;20936;-71
2022/01/17 04:21:51;;;;;;;25.80;23.33;;;;;;;1.57;100.00;98891.13;2089387;28;20230;-71
2022/01/17 04:22:54;;;;;;;24.70;22.23;;;;;;;1.56;100.00;98890.28;2089909;28;20199;-71
2022/01/17 04:23:56;;;;;;;24.48;22.38;;;;;;;1.53;100.00;98901.31;2098333;28;20652;-71
2022/01/17 04:24:58;;;;;;;26.65;23.95;;;;;;;1.51;100.00;98887.59;2098015;28;20241;-71
2022/01/17 04:26:02;;;;;;;25.23;22.90;;;;;;;1.46;100.00;98879.63;2089995;28;20590;-71
2022/01/17 04:27:03;;;;;;;24.92;22.42;;;;;;;1.48;100.00;98885.47;2098474;28;20277;-71
2022/01/17 04:28:06;;;;;;;24.42;22.13;;;;;;;1.50;100.00;98907.03;2098119;28;20201;-71
2022/01/17 04:29:09;;;;;;;24.77;22.38;;;;;;;1.48;100.00;98890.72;2098047;28;20269;-71
2022/01/17 04:30:13;;;;;;;24.97;22.23;;;;;;;1.48;100.00;98880.22;2097983;28;20216;-71
2022/01/17 04:31:19;;;;;;;26.50;23.60;;;;;;;1.42;100.00;98903.00;2098297;28;20191;-71
2022/01/17 04:32:22;;;;;;;26.33;23.80;;;;;;;1.44;100.00;98892.22;2098097;28;20193;-70
2022/01/17 04:33:24;;;;;;;25.58;23.15;;;;;;;1.44;100.00;98907.22;2089875;28;20191;-71
2022/01/17 04:34:24;;;;;;;26.98;24.20;;;;;;;1.42;100.00;98896.94;2098196;28;20714;-71
2022/01/17 04:35:27;;;;;;;26.60;23.93;;;;;;;1.36;100.00;98911.03;2098769;28;20605;-71
2022/01/17 04:36:29;;;;;;;26.77;24.17;;;;;;;1.34;100.00;98923.63;2098459;28;20244;-72
2022/01/17 04:37:30;;;;;;;28.15;25.25;;;;;;;1.33;100.00;98922.03;2098743;28;20194;-72
2022/01/17 04:38:33;;;;;;;27.30;24.40;;;;;;;1.31;100.00;98927.53;2098010;28;20202;-72
2022/01/17 04:39:34;;;;;;;28.10;25.20;;;;;;;1.31;100.00;98903.09;2090044;28;20199;-71
2022/01/17 04:40:38;;;;;;;30.00;25.33;;;;;;;1.30;100.00;98904.09;2089382;28;20202;-71
2022/01/17 04:41:40;;;;;;;27.45;24.63;;;;;;;1.24;100.00;98920.84;2098176;28;20205;-71
2022/01/17 04:42:45;;;;;;;29.45;26.48;;;;;;;1.26;100.00;98913.50;2098823;28;20202;-70
2022/01/17 04:45:07;;;;;;;30.23;27.08;;;;;;;1.24;100.00;98926.88;2097587;28;20213;-72
2022/01/17 04:45:22;;;;;;;28.88;25.77;;;;;;;1.22;100.00;98902.69;2098285;28;20182;-71
2022/01/17 04:46:26;;;;;;;27.27;24.60;;;;;;;1.25;100.00;98902.19;2097958;28;20716;-71
2022/01/17 04:47:30;;;;;;;28.90;24.20;;;;;;;1.24;100.00;98918.19;2090151;28;20210;-71
2022/01/17 04:48:32;;;;;;;29.00;25.92;;;;;;;1.24;100.00;98895.34;2098131;28;20229;-71
2022/01/17 04:49:33;;;;;;;28.00;25.00;;;;;;;1.26;100.00;98884.59;2098660;28;20186;-71
2022/01/17 04:50:35;;;;;;;29.67;26.27;;;;;;;1.25;100.00;98898.78;2098665;28;20186;-71
2022/01/17 04:51:38;;;;;;;28.10;25.08;;;;;;;1.28;100.00;98900.91;2097555;28;20233;-72
2022/01/17 04:52:42;;;;;;;29.23;25.55;;;;;;;1.25;100.00;98899.56;2097933;28;20194;-71
2022/01/17 04:53:56;;;;;;;30.15;26.85;;;;;;;1.29;100.00;98928.78;2098091;28;20193;-71
2022/01/17 04:55:01;;;;;;;28.27;25.58;;;;;;;1.28;100.00;98890.41;2098852;28;20232;-71
2022/01/17 04:56:03;;;;;;;28.75;25.65;;;;;;;1.30;100.00;98896.22;2097675;28;20269;-71
2022/01/17 04:57:06;;;;;;;28.67;25.73;;;;;;;1.31;100.00;98897.81;2098323;28;20586;-71
2022/01/17 04:58:08;;;;;;;28.90;25.88;;;;;;;1.33;100.00;98901.00;2098668;28;20217;-71
2022/01/17 04:59:09;;;;;;;28.00;25.13;;;;;;;1.33;100.00;98874.72;2098496;28;20241;-71
2022/01/17 05:00:15;;;;;;;27.35;24.55;;;;;;;1.35;100.00;98889.19;2098640;28;20214;-71